sensor_id;sensor_type;location;lat;lon;timestamp;P1;durP1;ratioP1;P2;durP2;ratioP2
2824;SDS011;1420;51.324;12.344;2022-09-09T00:00:20;20.50;;;18.68;;
2824;SDS011;1420;51.324;12.344;2022-09-09T00:02:52;21.44;;;18.74;;
2824;SDS011;1420;51.324;12.344;2022-09-09T00:05:20;22.20;;;20.32;;
2824;SDS011;1420;51.324;12.344;2022-09-09T00:07:58;25.28;;;22.94;;
2824;SDS011;1420;51.324;12.344;2022-09-09T00:10:26;23.46;;;21.34;;
2824;SDS011;1420;51.324;12.344;2022-09-09T00:13:00;24.34;;;22.28;;
2824;SDS011;1420;51.324;12.344;2022-09-09T00:18:56;20.94;;;19.00;;
2824;SDS011;1420;51.324;12.344;2022-09-09T00:21:28;16.16;;;14.46;;
2824;SDS011;1420;51.324;12.344;2022-09-09T00:23:55;26.36;;;24.22;;
2824;SDS011;1420;51.324;12.344;2022-09-09T00:26:40;26.78;;;24.46;;
2824;SDS011;1420;51.324;12.344;2022-09-09T00:29:08;21.66;;;19.52;;
2824;SDS011;1420;51.324;12.344;2022-09-09T00:31:44;18.08;;;14.02;;
2824;SDS011;1420;51.324;12.344;2022-09-09T00:34:12;23.30;;;21.36;;
2824;SDS011;1420;51.324;12.344;2022-09-09T00:36:39;15.32;;;13.76;;
2824;SDS011;1420;51.324;12.344;2022-09-09T00:39:09;17.98;;;16.26;;
2824;SDS011;1420;51.324;12.344;2022-09-09T00:41:38;45.32;;;41.60;;
2824;SDS011;1420;51.324;12.344;2022-09-09T00:44:19;28.82;;;26.72;;
2824;SDS011;1420;51.324;12.344;2022-09-09T00:46:50;43.18;;;40.18;;
2824;SDS011;1420;51.324;12.344;2022-09-09T00:49:19;27.52;;;24.82;;
2824;SDS011;1420;51.324;12.344;2022-09-09T00:51:48;18.76;;;16.86;;
2824;SDS011;1420;51.324;12.344;2022-09-09T00:56:51;26.24;;;23.86;;
2824;SDS011;1420;51.324;12.344;2022-09-09T00:59:22;25.18;;;22.66;;
2824;SDS011;1420;51.324;12.344;2022-09-09T01:02:07;36.90;;;33.92;;
2824;SDS011;1420;51.324;12.344;2022-09-09T01:04:32;25.76;;;22.90;;
2824;SDS011;1420;51.324;12.344;2022-09-09T01:06:59;33.82;;;30.88;;
2824;SDS011;1420;51.324;12.344;2022-09-09T01:09:26;26.64;;;23.94;;
2824;SDS011;1420;51.324;12.344;2022-09-09T01:11:57;47.48;;;43.00;;
2824;SDS011;1420;51.324;12.344;2022-09-09T01:14:42;32.38;;;29.62;;
2824;SDS011;1420;51.324;12.344;2022-09-09T01:17:13;28.00;;;25.46;;
2824;SDS011;1420;51.324;12.344;2022-09-09T01:20:14;23.72;;;21.64;;
2824;SDS011;1420;51.324;12.344;2022-09-09T01:22:38;20.28;;;18.26;;
2824;SDS011;1420;51.324;12.344;2022-09-09T01:25:11;36.18;;;33.52;;
2824;SDS011;1420;51.324;12.344;2022-09-09T01:27:36;38.06;;;34.86;;
2824;SDS011;1420;51.324;12.344;2022-09-09T01:30:08;30.88;;;27.86;;
2824;SDS011;1420;51.324;12.344;2022-09-09T01:32:37;33.08;;;30.06;;
2824;SDS011;1420;51.324;12.344;2022-09-09T01:35:12;31.88;;;29.46;;
2824;SDS011;1420;51.324;12.344;2022-09-09T01:37:39;33.06;;;30.18;;
2824;SDS011;1420;51.324;12.344;2022-09-09T01:40:07;26.06;;;23.40;;
2824;SDS011;1420;51.324;12.344;2022-09-09T01:42:34;32.66;;;29.86;;
2824;SDS011;1420;51.324;12.344;2022-09-09T01:45:01;33.98;;;31.46;;
2824;SDS011;1420;51.324;12.344;2022-09-09T01:47:29;25.88;;;23.56;;
2824;SDS011;1420;51.324;12.344;2022-09-09T01:49:56;44.82;;;41.12;;
2824;SDS011;1420;51.324;12.344;2022-09-09T01:52:23;51.62;;;46.86;;
2824;SDS011;1420;51.324;12.344;2022-09-09T01:54:50;55.64;;;50.80;;
2824;SDS011;1420;51.324;12.344;2022-09-09T01:57:18;42.16;;;38.64;;
2824;SDS011;1420;51.324;12.344;2022-09-09T01:59:53;25.66;;;23.58;;
2824;SDS011;1420;51.324;12.344;2022-09-09T02:02:27;47.34;;;42.82;;
2824;SDS011;1420;51.324;12.344;2022-09-09T02:04:54;27.62;;;25.14;;
2824;SDS011;1420;51.324;12.344;2022-09-09T02:07:27;39.46;;;36.04;;
2824;SDS011;1420;51.324;12.344;2022-09-09T02:09:52;23.70;;;21.46;;
2824;SDS011;1420;51.324;12.344;2022-09-09T02:12:18;27.12;;;24.74;;
2824;SDS011;1420;51.324;12.344;2022-09-09T02:14:47;43.22;;;39.40;;
2824;SDS011;1420;51.324;12.344;2022-09-09T02:17:13;37.70;;;34.92;;
2824;SDS011;1420;51.324;12.344;2022-09-09T02:19:42;27.38;;;25.08;;
2824;SDS011;1420;51.324;12.344;2022-09-09T02:22:08;46.64;;;42.96;;
2824;SDS011;1420;51.324;12.344;2022-09-09T02:24:36;42.02;;;38.76;;
2824;SDS011;1420;51.324;12.344;2022-09-09T02:27:03;23.68;;;21.06;;
2824;SDS011;1420;51.324;12.344;2022-09-09T02:29:33;28.38;;;25.70;;
2824;SDS011;1420;51.324;12.344;2022-09-09T02:32:00;24.80;;;22.88;;
2824;SDS011;1420;51.324;12.344;2022-09-09T02:34:27;36.20;;;33.24;;
2824;SDS011;1420;51.324;12.344;2022-09-09T02:36:54;22.60;;;20.52;;
2824;SDS011;1420;51.324;12.344;2022-09-09T02:39:21;19.66;;;17.86;;
2824;SDS011;1420;51.324;12.344;2022-09-09T02:41:49;32.00;;;29.62;;
2824;SDS011;1420;51.324;12.344;2022-09-09T02:44:18;32.46;;;29.52;;
2824;SDS011;1420;51.324;12.344;2022-09-09T02:46:51;16.02;;;13.82;;
2824;SDS011;1420;51.324;12.344;2022-09-09T02:49:28;39.04;;;36.10;;
2824;SDS011;1420;51.324;12.344;2022-09-09T02:51:59;24.88;;;22.56;;
2824;SDS011;1420;51.324;12.344;2022-09-09T02:54:28;36.92;;;34.10;;
2824;SDS011;1420;51.324;12.344;2022-09-09T02:57:01;18.52;;;16.62;;
2824;SDS011;1420;51.324;12.344;2022-09-09T02:59:28;30.34;;;27.80;;
2824;SDS011;1420;51.324;12.344;2022-09-09T03:01:55;21.48;;;19.40;;
2824;SDS011;1420;51.324;12.344;2022-09-09T03:04:22;16.58;;;14.90;;
2824;SDS011;1420;51.324;12.344;2022-09-09T03:06:49;51.30;;;40.78;;
2824;SDS011;1420;51.324;12.344;2022-09-09T03:09:16;35.38;;;32.58;;
2824;SDS011;1420;51.324;12.344;2022-09-09T03:11:43;24.54;;;22.30;;
2824;SDS011;1420;51.324;12.344;2022-09-09T03:14:11;31.54;;;29.08;;
2824;SDS011;1420;51.324;12.344;2022-09-09T03:16:39;23.46;;;21.38;;
2824;SDS011;1420;51.324;12.344;2022-09-09T03:19:07;20.62;;;18.54;;
2824;SDS011;1420;51.324;12.344;2022-09-09T03:21:35;22.52;;;20.32;;
2824;SDS011;1420;51.324;12.344;2022-09-09T03:24:02;17.16;;;12.20;;
2824;SDS011;1420;51.324;12.344;2022-09-09T03:26:30;13.02;;;11.40;;
2824;SDS011;1420;51.324;12.344;2022-09-09T03:28:57;22.96;;;20.90;;
2824;SDS011;1420;51.324;12.344;2022-09-09T03:31:24;32.24;;;28.38;;
2824;SDS011;1420;51.324;12.344;2022-09-09T03:33:51;23.98;;;21.82;;
2824;SDS011;1420;51.324;12.344;2022-09-09T03:36:19;20.60;;;18.12;;
2824;SDS011;1420;51.324;12.344;2022-09-09T03:38:46;15.80;;;14.28;;
2824;SDS011;1420;51.324;12.344;2022-09-09T03:41:13;14.16;;;11.34;;
2824;SDS011;1420;51.324;12.344;2022-09-09T03:43:41;21.64;;;19.64;;
2824;SDS011;1420;51.324;12.344;2022-09-09T03:46:08;23.44;;;21.04;;
2824;SDS011;1420;51.324;12.344;2022-09-09T03:48:35;19.92;;;17.94;;
2824;SDS011;1420;51.324;12.344;2022-09-09T03:51:03;31.36;;;28.50;;
2824;SDS011;1420;51.324;12.344;2022-09-09T03:53:31;23.32;;;21.24;;
2824;SDS011;1420;51.324;12.344;2022-09-09T03:55:58;18.02;;;11.20;;
2824;SDS011;1420;51.324;12.344;2022-09-09T03:58:25;19.46;;;17.38;;
2824;SDS011;1420;51.324;12.344;2022-09-09T04:00:53;16.26;;;13.34;;
2824;SDS011;1420;51.324;12.344;2022-09-09T04:03:20;21.80;;;19.70;;
2824;SDS011;1420;51.324;12.344;2022-09-09T04:05:49;33.78;;;31.00;;
2824;SDS011;1420;51.324;12.344;2022-09-09T04:08:16;25.00;;;22.88;;
2824;SDS011;1420;51.324;12.344;2022-09-09T04:10:44;14.58;;;12.90;;
2824;SDS011;1420;51.324;12.344;2022-09-09T04:13:11;28.56;;;26.02;;
2824;SDS011;1420;51.324;12.344;2022-09-09T04:15:39;17.14;;;15.44;;
2824;SDS011;1420;51.324;12.344;2022-09-09T04:18:10;18.48;;;16.72;;
2824;SDS011;1420;51.324;12.344;2022-09-09T04:20:37;15.90;;;12.86;;
2824;SDS011;1420;51.324;12.344;2022-09-09T04:23:04;18.10;;;15.22;;
2824;SDS011;1420;51.324;12.344;2022-09-09T04:25:32;15.32;;;13.22;;
2824;SDS011;1420;51.324;12.344;2022-09-09T04:27:59;20.98;;;19.02;;
2824;SDS011;1420;51.324;12.344;2022-09-09T04:30:26;18.80;;;16.84;;
2824;SDS011;1420;51.324;12.344;2022-09-09T04:32:53;33.00;;;30.10;;
2824;SDS011;1420;51.324;12.344;2022-09-09T04:35:20;29.84;;;27.62;;
2824;SDS011;1420;51.324;12.344;2022-09-09T04:37:48;29.32;;;26.82;;
2824;SDS011;1420;51.324;12.344;2022-09-09T04:40:15;25.50;;;22.88;;
2824;SDS011;1420;51.324;12.344;2022-09-09T04:42:42;26.22;;;24.02;;
2824;SDS011;1420;51.324;12.344;2022-09-09T04:45:09;19.30;;;17.54;;
2824;SDS011;1420;51.324;12.344;2022-09-09T04:47:37;18.00;;;15.76;;
2824;SDS011;1420;51.324;12.344;2022-09-09T04:50:05;24.84;;;20.32;;
2824;SDS011;1420;51.324;12.344;2022-09-09T04:52:34;18.26;;;16.62;;
2824;SDS011;1420;51.324;12.344;2022-09-09T04:55:01;21.26;;;19.18;;
2824;SDS011;1420;51.324;12.344;2022-09-09T04:57:28;20.68;;;18.68;;
2824;SDS011;1420;51.324;12.344;2022-09-09T04:59:55;22.66;;;20.42;;
2824;SDS011;1420;51.324;12.344;2022-09-09T05:02:22;14.26;;;11.10;;
2824;SDS011;1420;51.324;12.344;2022-09-09T05:04:49;17.86;;;13.00;;
2824;SDS011;1420;51.324;12.344;2022-09-09T05:07:17;13.18;;;11.00;;
2824;SDS011;1420;51.324;12.344;2022-09-09T05:09:44;14.06;;;10.30;;
2824;SDS011;1420;51.324;12.344;2022-09-09T05:12:12;20.10;;;18.06;;
2824;SDS011;1420;51.324;12.344;2022-09-09T05:14:39;14.60;;;13.12;;
2824;SDS011;1420;51.324;12.344;2022-09-09T05:17:06;19.00;;;14.78;;
2824;SDS011;1420;51.324;12.344;2022-09-09T05:19:33;11.88;;;5.88;;
2824;SDS011;1420;51.324;12.344;2022-09-09T05:22:00;11.94;;;7.58;;
2824;SDS011;1420;51.324;12.344;2022-09-09T05:24:28;11.98;;;6.12;;
2824;SDS011;1420;51.324;12.344;2022-09-09T05:26:55;14.98;;;10.46;;
2824;SDS011;1420;51.324;12.344;2022-09-09T05:29:22;11.22;;;7.84;;
2824;SDS011;1420;51.324;12.344;2022-09-09T05:31:50;9.90;;;3.60;;
2824;SDS011;1420;51.324;12.344;2022-09-09T05:34:17;12.40;;;8.58;;
2824;SDS011;1420;51.324;12.344;2022-09-09T05:36:44;10.64;;;6.82;;
2824;SDS011;1420;51.324;12.344;2022-09-09T05:39:12;10.74;;;4.46;;
2824;SDS011;1420;51.324;12.344;2022-09-09T05:41:39;9.62;;;4.22;;
2824;SDS011;1420;51.324;12.344;2022-09-09T05:44:06;10.32;;;3.28;;
2824;SDS011;1420;51.324;12.344;2022-09-09T05:46:33;10.64;;;5.38;;
2824;SDS011;1420;51.324;12.344;2022-09-09T05:49:01;10.16;;;5.42;;
2824;SDS011;1420;51.324;12.344;2022-09-09T05:51:28;8.78;;;2.74;;
2824;SDS011;1420;51.324;12.344;2022-09-09T05:53:55;11.50;;;5.42;;
2824;SDS011;1420;51.324;12.344;2022-09-09T05:56:24;9.68;;;4.10;;
2824;SDS011;1420;51.324;12.344;2022-09-09T05:58:49;11.54;;;4.44;;
2824;SDS011;1420;51.324;12.344;2022-09-09T06:01:17;9.02;;;3.04;;
2824;SDS011;1420;51.324;12.344;2022-09-09T06:03:44;9.44;;;2.32;;
2824;SDS011;1420;51.324;12.344;2022-09-09T06:06:15;10.26;;;5.30;;
2824;SDS011;1420;51.324;12.344;2022-09-09T06:08:43;8.50;;;2.74;;
2824;SDS011;1420;51.324;12.344;2022-09-09T06:11:11;12.56;;;8.06;;
2824;SDS011;1420;51.324;12.344;2022-09-09T06:13:37;9.84;;;5.46;;
2824;SDS011;1420;51.324;12.344;2022-09-09T06:16:05;9.80;;;3.00;;
2824;SDS011;1420;51.324;12.344;2022-09-09T06:18:32;8.88;;;3.50;;
2824;SDS011;1420;51.324;12.344;2022-09-09T06:21:01;9.94;;;3.72;;
2824;SDS011;1420;51.324;12.344;2022-09-09T06:23:28;9.82;;;3.76;;
2824;SDS011;1420;51.324;12.344;2022-09-09T06:26:02;11.12;;;4.40;;
2824;SDS011;1420;51.324;12.344;2022-09-09T06:28:31;8.52;;;3.28;;
2824;SDS011;1420;51.324;12.344;2022-09-09T06:30:59;8.52;;;1.44;;
2824;SDS011;1420;51.324;12.344;2022-09-09T06:33:26;9.20;;;3.16;;
2824;SDS011;1420;51.324;12.344;2022-09-09T06:35:53;8.44;;;3.20;;
2824;SDS011;1420;51.324;12.344;2022-09-09T06:38:21;8.14;;;1.92;;
2824;SDS011;1420;51.324;12.344;2022-09-09T06:40:51;10.26;;;3.44;;
2824;SDS011;1420;51.324;12.344;2022-09-09T06:43:18;8.90;;;1.64;;
2824;SDS011;1420;51.324;12.344;2022-09-09T06:45:52;9.84;;;5.58;;
2824;SDS011;1420;51.324;12.344;2022-09-09T06:48:27;7.72;;;1.42;;
2824;SDS011;1420;51.324;12.344;2022-09-09T06:51:03;7.98;;;2.38;;
2824;SDS011;1420;51.324;12.344;2022-09-09T06:53:29;7.56;;;2.02;;
2824;SDS011;1420;51.324;12.344;2022-09-09T06:55:56;9.44;;;2.02;;
2824;SDS011;1420;51.324;12.344;2022-09-09T06:58:24;7.86;;;2.58;;
2824;SDS011;1420;51.324;12.344;2022-09-09T07:00:52;7.68;;;2.24;;
2824;SDS011;1420;51.324;12.344;2022-09-09T07:03:19;8.72;;;1.28;;
2824;SDS011;1420;51.324;12.344;2022-09-09T07:05:53;10.68;;;1.46;;
2824;SDS011;1420;51.324;12.344;2022-09-09T07:08:14;8.12;;;2.14;;
2824;SDS011;1420;51.324;12.344;2022-09-09T07:10:41;8.78;;;1.20;;
2824;SDS011;1420;51.324;12.344;2022-09-09T07:13:08;9.62;;;4.10;;
2824;SDS011;1420;51.324;12.344;2022-09-09T07:15:36;7.42;;;0.84;;
2824;SDS011;1420;51.324;12.344;2022-09-09T07:18:03;7.14;;;2.00;;
2824;SDS011;1420;51.324;12.344;2022-09-09T07:20:30;8.24;;;1.22;;
2824;SDS011;1420;51.324;12.344;2022-09-09T07:22:57;8.18;;;1.12;;
2824;SDS011;1420;51.324;12.344;2022-09-09T07:25:25;8.40;;;0.80;;
2824;SDS011;1420;51.324;12.344;2022-09-09T07:27:52;6.90;;;0.80;;
2824;SDS011;1420;51.324;12.344;2022-09-09T07:30:20;6.84;;;0.86;;
2824;SDS011;1420;51.324;12.344;2022-09-09T07:32:47;6.22;;;0.60;;
2824;SDS011;1420;51.324;12.344;2022-09-09T07:35:14;7.14;;;0.80;;
2824;SDS011;1420;51.324;12.344;2022-09-09T07:37:41;8.08;;;1.12;;
2824;SDS011;1420;51.324;12.344;2022-09-09T07:40:09;6.64;;;0.80;;
2824;SDS011;1420;51.324;12.344;2022-09-09T07:42:36;7.18;;;0.80;;
2824;SDS011;1420;51.324;12.344;2022-09-09T07:45:03;7.30;;;0.90;;
2824;SDS011;1420;51.324;12.344;2022-09-09T07:47:31;8.32;;;0.98;;
2824;SDS011;1420;51.324;12.344;2022-09-09T07:49:58;7.40;;;0.90;;
2824;SDS011;1420;51.324;12.344;2022-09-09T07:52:26;7.30;;;1.00;;
2824;SDS011;1420;51.324;12.344;2022-09-09T07:54:53;6.92;;;0.70;;
2824;SDS011;1420;51.324;12.344;2022-09-09T07:57:20;7.84;;;1.00;;
2824;SDS011;1420;51.324;12.344;2022-09-09T07:59:47;9.04;;;1.10;;
2824;SDS011;1420;51.324;12.344;2022-09-09T08:02:15;7.32;;;0.90;;
2824;SDS011;1420;51.324;12.344;2022-09-09T08:04:42;8.48;;;1.24;;
2824;SDS011;1420;51.324;12.344;2022-09-09T08:07:10;7.76;;;1.10;;
2824;SDS011;1420;51.324;12.344;2022-09-09T08:09:37;7.66;;;0.90;;
2824;SDS011;1420;51.324;12.344;2022-09-09T08:12:04;8.54;;;1.18;;
2824;SDS011;1420;51.324;12.344;2022-09-09T08:14:31;8.16;;;0.94;;
2824;SDS011;1420;51.324;12.344;2022-09-09T08:16:58;7.58;;;0.94;;
2824;SDS011;1420;51.324;12.344;2022-09-09T08:19:26;8.00;;;0.92;;
2824;SDS011;1420;51.324;12.344;2022-09-09T08:21:53;9.72;;;1.20;;
2824;SDS011;1420;51.324;12.344;2022-09-09T08:24:20;7.46;;;1.00;;
2824;SDS011;1420;51.324;12.344;2022-09-09T08:26:48;7.94;;;0.80;;
2824;SDS011;1420;51.324;12.344;2022-09-09T08:29:16;7.68;;;0.80;;
2824;SDS011;1420;51.324;12.344;2022-09-09T08:31:44;10.82;;;1.06;;
2824;SDS011;1420;51.324;12.344;2022-09-09T08:34:11;7.20;;;0.72;;
2824;SDS011;1420;51.324;12.344;2022-09-09T08:36:39;6.96;;;0.80;;
2824;SDS011;1420;51.324;12.344;2022-09-09T08:39:06;7.42;;;0.82;;
2824;SDS011;1420;51.324;12.344;2022-09-09T08:44:14;7.30;;;0.80;;
2824;SDS011;1420;51.324;12.344;2022-09-09T08:46:47;7.84;;;1.20;;
2824;SDS011;1420;51.324;12.344;2022-09-09T08:49:25;7.38;;;0.92;;
2824;SDS011;1420;51.324;12.344;2022-09-09T08:51:50;7.70;;;0.82;;
2824;SDS011;1420;51.324;12.344;2022-09-09T08:54:17;7.72;;;1.26;;
2824;SDS011;1420;51.324;12.344;2022-09-09T08:56:44;6.94;;;0.78;;
2824;SDS011;1420;51.324;12.344;2022-09-09T08:59:12;9.26;;;1.84;;
2824;SDS011;1420;51.324;12.344;2022-09-09T09:01:41;6.98;;;0.80;;
2824;SDS011;1420;51.324;12.344;2022-09-09T09:05:16;8.38;;;1.40;;
2824;SDS011;1420;51.324;12.344;2022-09-09T09:09:32;8.50;;;1.10;;
2824;SDS011;1420;51.324;12.344;2022-09-09T09:11:57;8.88;;;1.34;;
2824;SDS011;1420;51.324;12.344;2022-09-09T09:14:24;8.00;;;1.06;;
2824;SDS011;1420;51.324;12.344;2022-09-09T09:16:53;8.14;;;0.70;;
2824;SDS011;1420;51.324;12.344;2022-09-09T09:19:19;8.56;;;1.06;;
2824;SDS011;1420;51.324;12.344;2022-09-09T09:21:49;7.86;;;1.16;;
2824;SDS011;1420;51.324;12.344;2022-09-09T09:24:23;17.26;;;1.72;;
2824;SDS011;1420;51.324;12.344;2022-09-09T09:26:48;10.48;;;1.30;;
2824;SDS011;1420;51.324;12.344;2022-09-09T09:29:16;10.24;;;1.46;;
2824;SDS011;1420;51.324;12.344;2022-09-09T09:31:47;10.28;;;1.12;;
2824;SDS011;1420;51.324;12.344;2022-09-09T09:34:13;9.88;;;1.52;;
2824;SDS011;1420;51.324;12.344;2022-09-09T09:36:41;9.70;;;1.68;;
2824;SDS011;1420;51.324;12.344;2022-09-09T09:39:08;9.74;;;1.02;;
2824;SDS011;1420;51.324;12.344;2022-09-09T09:41:39;8.68;;;1.14;;
2824;SDS011;1420;51.324;12.344;2022-09-09T09:44:19;10.18;;;1.30;;
2824;SDS011;1420;51.324;12.344;2022-09-09T09:46:48;9.46;;;1.68;;
2824;SDS011;1420;51.324;12.344;2022-09-09T09:49:15;9.54;;;1.92;;
2824;SDS011;1420;51.324;12.344;2022-09-09T09:51:42;10.18;;;1.76;;
2824;SDS011;1420;51.324;12.344;2022-09-09T09:54:17;9.80;;;2.28;;
2824;SDS011;1420;51.324;12.344;2022-09-09T09:56:43;9.30;;;1.58;;
2824;SDS011;1420;51.324;12.344;2022-09-09T10:01:46;8.36;;;1.50;;
2824;SDS011;1420;51.324;12.344;2022-09-09T10:04:15;13.62;;;2.44;;
2824;SDS011;1420;51.324;12.344;2022-09-09T10:06:42;10.34;;;1.70;;
2824;SDS011;1420;51.324;12.344;2022-09-09T10:11:50;8.28;;;2.40;;
2824;SDS011;1420;51.324;12.344;2022-09-09T10:14:19;12.88;;;3.84;;
2824;SDS011;1420;51.324;12.344;2022-09-09T10:16:51;8.42;;;2.40;;
2824;SDS011;1420;51.324;12.344;2022-09-09T10:19:21;8.64;;;2.14;;
2824;SDS011;1420;51.324;12.344;2022-09-09T10:22:09;8.16;;;1.46;;
2824;SDS011;1420;51.324;12.344;2022-09-09T10:24:42;9.50;;;2.48;;
2824;SDS011;1420;51.324;12.344;2022-09-09T10:27:19;8.10;;;1.12;;
2824;SDS011;1420;51.324;12.344;2022-09-09T10:29:54;6.58;;;1.50;;
2824;SDS011;1420;51.324;12.344;2022-09-09T10:32:33;6.80;;;0.88;;
2824;SDS011;1420;51.324;12.344;2022-09-09T10:35:04;8.78;;;0.98;;
2824;SDS011;1420;51.324;12.344;2022-09-09T10:37:52;7.70;;;0.80;;
2824;SDS011;1420;51.324;12.344;2022-09-09T10:40:23;8.32;;;1.60;;
2824;SDS011;1420;51.324;12.344;2022-09-09T10:45:43;9.50;;;2.38;;
2824;SDS011;1420;51.324;12.344;2022-09-09T10:48:12;10.36;;;4.64;;
2824;SDS011;1420;51.324;12.344;2022-09-09T10:50:42;10.02;;;2.62;;
2824;SDS011;1420;51.324;12.344;2022-09-09T10:53:10;10.90;;;3.32;;
2824;SDS011;1420;51.324;12.344;2022-09-09T10:55:39;8.52;;;1.40;;
2824;SDS011;1420;51.324;12.344;2022-09-09T10:58:05;8.60;;;2.36;;
2824;SDS011;1420;51.324;12.344;2022-09-09T11:00:39;7.06;;;0.80;;
2824;SDS011;1420;51.324;12.344;2022-09-09T11:03:05;6.66;;;0.98;;
2824;SDS011;1420;51.324;12.344;2022-09-09T11:05:41;7.56;;;0.96;;
2824;SDS011;1420;51.324;12.344;2022-09-09T11:08:12;6.96;;;0.90;;
2824;SDS011;1420;51.324;12.344;2022-09-09T11:10:44;7.08;;;0.76;;
2824;SDS011;1420;51.324;12.344;2022-09-09T11:13:18;8.46;;;2.02;;
2824;SDS011;1420;51.324;12.344;2022-09-09T11:15:47;8.10;;;1.34;;
2824;SDS011;1420;51.324;12.344;2022-09-09T11:18:15;7.90;;;1.54;;
2824;SDS011;1420;51.324;12.344;2022-09-09T11:20:41;8.60;;;2.64;;
2824;SDS011;1420;51.324;12.344;2022-09-09T11:23:12;7.90;;;1.60;;
2824;SDS011;1420;51.324;12.344;2022-09-09T11:25:40;8.02;;;1.22;;
2824;SDS011;1420;51.324;12.344;2022-09-09T11:36:33;6.48;;;1.14;;
2824;SDS011;1420;51.324;12.344;2022-09-09T11:39:02;7.40;;;1.20;;
2824;SDS011;1420;51.324;12.344;2022-09-09T11:41:42;9.32;;;1.40;;
2824;SDS011;1420;51.324;12.344;2022-09-09T11:44:11;8.52;;;2.22;;
2824;SDS011;1420;51.324;12.344;2022-09-09T11:46:38;8.52;;;1.90;;
2824;SDS011;1420;51.324;12.344;2022-09-09T11:49:05;8.64;;;1.34;;
2824;SDS011;1420;51.324;12.344;2022-09-09T11:51:33;9.62;;;1.48;;
2824;SDS011;1420;51.324;12.344;2022-09-09T11:54:00;8.74;;;1.14;;
2824;SDS011;1420;51.324;12.344;2022-09-09T11:56:28;7.70;;;0.90;;
2824;SDS011;1420;51.324;12.344;2022-09-09T11:59:05;9.10;;;0.98;;
2824;SDS011;1420;51.324;12.344;2022-09-09T12:01:36;9.20;;;1.30;;
2824;SDS011;1420;51.324;12.344;2022-09-09T12:04:12;9.32;;;1.28;;
2824;SDS011;1420;51.324;12.344;2022-09-09T12:06:43;9.42;;;1.68;;
2824;SDS011;1420;51.324;12.344;2022-09-09T12:09:18;9.66;;;1.00;;
2824;SDS011;1420;51.324;12.344;2022-09-09T12:11:37;10.36;;;2.94;;
2824;SDS011;1420;51.324;12.344;2022-09-09T12:14:18;8.56;;;2.06;;
2824;SDS011;1420;51.324;12.344;2022-09-09T12:16:33;10.06;;;1.42;;
2824;SDS011;1420;51.324;12.344;2022-09-09T12:19:05;9.98;;;1.20;;
2824;SDS011;1420;51.324;12.344;2022-09-09T12:21:34;9.90;;;2.10;;
2824;SDS011;1420;51.324;12.344;2022-09-09T12:24:03;10.92;;;1.78;;
2824;SDS011;1420;51.324;12.344;2022-09-09T12:26:34;9.00;;;1.62;;
2824;SDS011;1420;51.324;12.344;2022-09-09T12:29:04;8.82;;;1.00;;
2824;SDS011;1420;51.324;12.344;2022-09-09T12:31:43;9.42;;;3.30;;
2824;SDS011;1420;51.324;12.344;2022-09-09T12:34:09;10.44;;;2.74;;
2824;SDS011;1420;51.324;12.344;2022-09-09T12:36:37;15.10;;;2.46;;
2824;SDS011;1420;51.324;12.344;2022-09-09T12:39:18;11.72;;;1.66;;
2824;SDS011;1420;51.324;12.344;2022-09-09T12:42:02;9.06;;;1.02;;
2824;SDS011;1420;51.324;12.344;2022-09-09T12:44:29;9.62;;;1.56;;
2824;SDS011;1420;51.324;12.344;2022-09-09T12:46:58;9.52;;;2.02;;
2824;SDS011;1420;51.324;12.344;2022-09-09T12:49:29;8.70;;;0.90;;
2824;SDS011;1420;51.324;12.344;2022-09-09T12:51:55;8.90;;;1.02;;
2824;SDS011;1420;51.324;12.344;2022-09-09T12:54:22;10.10;;;1.88;;
2824;SDS011;1420;51.324;12.344;2022-09-09T12:56:50;9.68;;;1.90;;
2824;SDS011;1420;51.324;12.344;2022-09-09T12:59:24;9.88;;;1.90;;
2824;SDS011;1420;51.324;12.344;2022-09-09T13:01:56;9.58;;;2.24;;
2824;SDS011;1420;51.324;12.344;2022-09-09T13:04:23;9.80;;;2.44;;
2824;SDS011;1420;51.324;12.344;2022-09-09T13:06:51;9.00;;;1.32;;
2824;SDS011;1420;51.324;12.344;2022-09-09T13:09:18;10.60;;;2.16;;
2824;SDS011;1420;51.324;12.344;2022-09-09T13:11:49;10.22;;;1.04;;
2824;SDS011;1420;51.324;12.344;2022-09-09T13:14:16;10.10;;;1.14;;
2824;SDS011;1420;51.324;12.344;2022-09-09T13:16:42;12.16;;;2.76;;
2824;SDS011;1420;51.324;12.344;2022-09-09T13:19:14;10.56;;;2.44;;
2824;SDS011;1420;51.324;12.344;2022-09-09T13:21:40;9.94;;;2.48;;
2824;SDS011;1420;51.324;12.344;2022-09-09T13:26:53;10.94;;;1.46;;
2824;SDS011;1420;51.324;12.344;2022-09-09T13:29:16;9.38;;;1.84;;
2824;SDS011;1420;51.324;12.344;2022-09-09T13:31:42;11.62;;;3.16;;
2824;SDS011;1420;51.324;12.344;2022-09-09T13:34:11;10.80;;;3.88;;
2824;SDS011;1420;51.324;12.344;2022-09-09T13:36:39;9.78;;;2.70;;
2824;SDS011;1420;51.324;12.344;2022-09-09T13:39:13;9.84;;;1.22;;
2824;SDS011;1420;51.324;12.344;2022-09-09T13:41:36;8.88;;;2.24;;
2824;SDS011;1420;51.324;12.344;2022-09-09T13:44:03;9.54;;;2.20;;
2824;SDS011;1420;51.324;12.344;2022-09-09T13:46:36;9.98;;;4.76;;
2824;SDS011;1420;51.324;12.344;2022-09-09T13:51:50;8.72;;;1.56;;
2824;SDS011;1420;51.324;12.344;2022-09-09T13:54:18;10.38;;;4.02;;
2824;SDS011;1420;51.324;12.344;2022-09-09T13:56:44;9.94;;;5.64;;
2824;SDS011;1420;51.324;12.344;2022-09-09T13:59:13;16.12;;;14.42;;
2824;SDS011;1420;51.324;12.344;2022-09-09T14:01:39;18.30;;;16.56;;
2824;SDS011;1420;51.324;12.344;2022-09-09T14:04:07;28.06;;;25.84;;
2824;SDS011;1420;51.324;12.344;2022-09-09T14:06:35;41.30;;;37.90;;
2824;SDS011;1420;51.324;12.344;2022-09-09T14:09:02;38.78;;;35.28;;
2824;SDS011;1420;51.324;12.344;2022-09-09T14:11:29;57.94;;;53.74;;
2824;SDS011;1420;51.324;12.344;2022-09-09T14:13:57;50.52;;;47.16;;
2824;SDS011;1420;51.324;12.344;2022-09-09T14:16:24;60.90;;;56.26;;
2824;SDS011;1420;51.324;12.344;2022-09-09T14:18:51;63.58;;;57.66;;
2824;SDS011;1420;51.324;12.344;2022-09-09T14:21:19;46.20;;;42.74;;
2824;SDS011;1420;51.324;12.344;2022-09-09T14:23:47;29.56;;;27.42;;
2824;SDS011;1420;51.324;12.344;2022-09-09T14:26:14;19.54;;;18.02;;
2824;SDS011;1420;51.324;12.344;2022-09-09T14:28:41;41.60;;;38.42;;
2824;SDS011;1420;51.324;12.344;2022-09-09T14:31:09;43.90;;;40.04;;
2824;SDS011;1420;51.324;12.344;2022-09-09T14:33:37;32.36;;;26.26;;
2824;SDS011;1420;51.324;12.344;2022-09-09T14:36:05;20.40;;;18.60;;
2824;SDS011;1420;51.324;12.344;2022-09-09T14:38:33;23.02;;;20.16;;
2824;SDS011;1420;51.324;12.344;2022-09-09T14:40:59;18.60;;;16.92;;
2824;SDS011;1420;51.324;12.344;2022-09-09T14:43:27;21.82;;;20.08;;
2824;SDS011;1420;51.324;12.344;2022-09-09T14:45:55;20.52;;;18.58;;
2824;SDS011;1420;51.324;12.344;2022-09-09T14:48:22;21.06;;;19.18;;
2824;SDS011;1420;51.324;12.344;2022-09-09T14:50:49;15.18;;;13.68;;
2824;SDS011;1420;51.324;12.344;2022-09-09T14:53:17;21.96;;;20.14;;
2824;SDS011;1420;51.324;12.344;2022-09-09T14:55:44;14.04;;;11.76;;
2824;SDS011;1420;51.324;12.344;2022-09-09T14:58:11;20.42;;;18.66;;
2824;SDS011;1420;51.324;12.344;2022-09-09T15:00:38;20.46;;;18.28;;
2824;SDS011;1420;51.324;12.344;2022-09-09T15:03:06;14.74;;;13.24;;
2824;SDS011;1420;51.324;12.344;2022-09-09T15:05:33;20.06;;;18.28;;
2824;SDS011;1420;51.324;12.344;2022-09-09T15:08:01;14.66;;;13.16;;
2824;SDS011;1420;51.324;12.344;2022-09-09T15:10:29;14.36;;;11.40;;
2824;SDS011;1420;51.324;12.344;2022-09-09T15:12:56;12.44;;;7.68;;
2824;SDS011;1420;51.324;12.344;2022-09-09T15:15:23;17.80;;;16.06;;
2824;SDS011;1420;51.324;12.344;2022-09-09T15:17:50;14.38;;;12.86;;
2824;SDS011;1420;51.324;12.344;2022-09-09T15:20:18;14.48;;;12.76;;
2824;SDS011;1420;51.324;12.344;2022-09-09T15:22:45;11.02;;;6.68;;
2824;SDS011;1420;51.324;12.344;2022-09-09T15:25:12;17.54;;;15.90;;
2824;SDS011;1420;51.324;12.344;2022-09-09T15:27:39;23.22;;;20.98;;
2824;SDS011;1420;51.324;12.344;2022-09-09T15:30:07;10.40;;;7.06;;